Time;durP1;ratioP1;P1;durP2;ratioP2;P2;SDS_P1;SDS_P2;PMS_P1;PMS_P2;Temp;Humidity;BMP_temperature;BMP_pressure;BME280_temperature;BME280_humidity;BME280_pressure;Samples;Min_cycle;Max_cycle;Signal;HPM_P1;HPM_P2
2023/09/02 00:01:55;;;;;;;5.70;2.35;;;;;;;;;;10438936;28;20045;-79
2023/09/02 00:06:59;;;;;;;5.57;2.42;;;;;;;;;;10439459;28;20076;-79
2023/09/02 00:12:02;;;;;;;5.75;2.78;;;;;;;;;;10432321;28;20069;-79
2023/09/02 00:17:04;;;;;;;5.57;2.25;;;;;;;;;;10448978;28;20045;-79
2023/09/02 00:22:08;;;;;;;6.15;2.80;;;;;;;;;;10451577;28;20164;-79
2023/09/02 00:27:11;;;;;;;6.57;2.80;;;;;;;;;;10444888;28;20133;-78
2023/09/02 00:32:13;;;;;;;5.32;2.42;;;;;;;;;;10444068;28;20128;-79
2023/09/02 00:37:17;;;;;;;8.15;2.60;;;;;;;;;;10442217;28;20072;-78
2023/09/02 00:42:20;;;;;;;6.57;2.42;;;;;;;;;;10433351;28;20132;-79
2023/09/02 00:47:23;;;;;;;4.30;2.22;;;;;;;;;;10445317;28;20566;-79
2023/09/02 00:52:28;;;;;;;5.20;2.40;;;;;;;;;;10448632;28;20099;-79
2023/09/02 00:57:31;;;;;;;4.38;2.20;;;;;;;;;;10442864;28;20589;-78
2023/09/02 01:02:34;;;;;;;6.38;2.67;;;;;;;;;;10449284;28;20108;-79
2023/09/02 01:07:39;;;;;;;8.85;2.83;;;;;;;;;;10439697;28;20053;-79
2023/09/02 01:12:42;;;;;;;6.25;2.45;;;;;;;;;;10446117;28;20084;-78
2023/09/02 01:17:44;;;;;;;5.53;2.40;;;;;;;;;;10440728;28;20067;-78
2023/09/02 01:22:59;;;;;;;6.75;2.67;;;;;;;;;;10446037;28;20478;-78
2023/09/02 01:28:06;;;;;;;4.63;2.13;;;;;;;;;;10444105;28;20049;-78
2023/09/02 01:33:09;;;;;;;4.53;2.10;;;;;;;;;;10440327;28;20068;-78
2023/09/02 01:38:12;;;;;;;;;;;;;;;;;;10446818;28;20072;-78
2023/09/02 01:43:20;;;;;;;6.07;2.20;;;;;;;;;;10435380;28;20023;-78
2023/09/02 01:48:26;;;;;;;5.65;2.25;;;;;;;;;;10440975;28;20065;-78
2023/09/02 01:53:29;;;;;;;5.38;2.40;;;;;;;;;;10436761;28;20040;-80
2023/09/02 01:58:33;;;;;;;4.23;2.07;;;;;;;;;;10436358;28;20041;-79
2023/09/02 02:03:37;;;;;;;6.22;2.50;;;;;;;;;;10445671;28;20299;-79
2023/09/02 02:08:44;;;;;;;4.75;2.10;;;;;;;;;;10443238;28;20045;-78
2023/09/02 02:13:50;;;;;;;3.80;2.03;;;;;;;;;;10438312;28;20122;-78
2023/09/02 02:18:53;;;;;;;4.47;1.90;;;;;;;;;;10439149;28;20045;-78
2023/09/02 02:23:56;;;;;;;4.90;1.98;;;;;;;;;;10441568;28;20053;-79
2023/09/02 02:29:01;;;;;;;5.93;2.15;;;;;;;;;;10429489;28;20045;-78
2023/09/02 02:34:03;;;;;;;4.68;1.67;;;;;;;;;;10440061;28;20464;-79
2023/09/02 02:39:06;;;;;;;3.90;1.80;;;;;;;;;;10439928;28;20076;-79
2023/09/02 02:44:10;;;;;;;4.67;2.03;;;;;;;;;;10434801;28;20152;-79
2023/09/02 02:49:13;;;;;;;3.17;1.95;;;;;;;;;;10435951;28;20208;-78
2023/09/02 02:54:15;;;;;;;4.00;2.08;;;;;;;;;;10432465;28;20071;-79
2023/09/02 02:59:19;;;;;;;3.42;1.95;;;;;;;;;;10437937;28;20076;-78
2023/09/02 03:04:22;;;;;;;4.70;2.35;;;;;;;;;;10436319;28;20041;-79
2023/09/02 03:09:24;;;;;;;3.38;2.20;;;;;;;;;;10436017;28;20129;-79
2023/09/02 03:14:28;;;;;;;7.70;2.25;;;;;;;;;;10439145;28;20036;-79
2023/09/02 03:19:31;;;;;;;3.67;2.00;;;;;;;;;;10434612;28;20111;-79
2023/09/02 03:24:33;;;;;;;3.78;1.92;;;;;;;;;;10439327;28;20147;-79
2023/09/02 03:29:37;;;;;;;3.65;2.00;;;;;;;;;;10436586;28;20124;-79
2023/09/02 03:34:40;;;;;;;3.58;1.73;;;;;;;;;;10435222;28;20045;-79
2023/09/02 03:39:42;;;;;;;4.47;2.22;;;;;;;;;;10441349;28;20061;-79
2023/09/02 03:44:47;;;;;;;3.50;1.77;;;;;;;;;;10437558;28;20037;-78
2023/09/02 03:49:50;;;;;;;5.47;2.10;;;;;;;;;;10441930;28;20132;-79
2023/09/02 03:54:53;;;;;;;3.83;1.95;;;;;;;;;;10440803;28;20036;-79
2023/09/02 03:59:57;;;;;;;5.82;2.40;;;;;;;;;;10433787;28;20057;-79
2023/09/02 04:05:01;;;;;;;3.08;1.90;;;;;;;;;;10438382;28;20061;-79
2023/09/02 04:10:04;;;;;;;3.60;2.00;;;;;;;;;;10435324;28;20123;-79
2023/09/02 04:15:09;;;;;;;3.80;2.03;;;;;;;;;;10436477;28;20056;-78
2023/09/02 04:20:12;;;;;;;4.10;2.13;;;;;;;;;;10439359;28;20076;-79
2023/09/02 04:25:15;;;;;;;4.05;1.95;;;;;;;;;;10435527;28;20064;-78
2023/09/02 04:30:19;;;;;;;4.10;2.20;;;;;;;;;;10435188;28;20091;-77
2023/09/02 04:35:21;;;;;;;5.78;2.20;;;;;;;;;;10434317;28;20299;-78
2023/09/02 04:40:26;;;;;;;5.70;2.35;;;;;;;;;;10437131;28;20093;-79
2023/09/02 04:45:31;;;;;;;5.20;2.10;;;;;;;;;;10443393;28;20033;-79
2023/09/02 04:50:34;;;;;;;5.82;2.35;;;;;;;;;;10442960;28;20051;-78
2023/09/02 04:55:38;;;;;;;4.75;1.90;;;;;;;;;;10435174;28;20072;-78
2023/09/02 05:00:41;;;;;;;;;;;;;;;;;;10434064;28;20130;-79
2023/09/02 05:05:45;;;;;;;4.88;2.28;;;;;;;;;;10440435;28;19920;-78
2023/09/02 05:10:47;;;;;;;5.93;2.45;;;;;;;;;;10443983;28;20041;-79
2023/09/02 05:15:50;;;;;;;5.22;2.22;;;;;;;;;;10449398;28;20120;-78
2023/09/02 05:20:56;;;;;;;8.25;1.98;;;;;;;;;;10451525;28;20064;-78
2023/09/02 05:25:59;;;;;;;3.83;1.95;;;;;;;;;;10442782;28;20087;-79
2023/09/02 05:31:02;;;;;;;4.93;2.22;;;;;;;;;;10440040;28;20049;-79
2023/09/02 05:36:06;;;;;;;4.63;2.10;;;;;;;;;;10437843;28;20048;-78
2023/09/02 05:41:10;;;;;;;4.63;2.13;;;;;;;;;;10444449;28;20120;-79
2023/09/02 05:46:12;;;;;;;3.35;2.05;;;;;;;;;;10450427;28;20064;-78
2023/09/02 05:51:16;;;;;;;4.13;2.17;;;;;;;;;;10444513;28;20414;-78
2023/09/02 05:56:22;;;;;;;5.88;2.10;;;;;;;;;;10439380;28;20042;-79
2023/09/02 06:01:24;;;;;;;2.73;1.70;;;;;;;;;;10437581;28;20078;-79
2023/09/02 06:06:28;;;;;;;2.83;1.52;;;;;;;;;;10447144;28;20080;-79
2023/09/02 06:11:34;;;;;;;3.88;1.80;;;;;;;;;;10446215;28;20132;-79
2023/09/02 06:16:36;;;;;;;2.67;1.73;;;;;;;;;;10441595;28;20046;-80
2023/09/02 06:21:40;;;;;;;4.55;1.70;;;;;;;;;;10440093;28;20073;-78
2023/09/02 06:26:43;;;;;;;5.00;1.88;;;;;;;;;;10439463;28;20067;-78
2023/09/02 06:31:46;;;;;;;10.43;2.10;;;;;;;;;;10447487;28;20207;-78
2023/09/02 06:36:50;;;;;;;4.78;2.20;;;;;;;;;;10442790;28;20727;-78
2023/09/02 06:41:53;;;;;;;4.05;1.88;;;;;;;;;;10449371;28;20450;-78
2023/09/02 06:46:55;;;;;;;6.03;2.37;;;;;;;;;;10443888;28;20558;-79
2023/09/02 06:52:00;;;;;;;4.07;2.07;;;;;;;;;;10435358;28;20041;-79
2023/09/02 06:57:03;;;;;;;4.72;1.67;;;;;;;;;;10445049;28;20115;-80
2023/09/02 07:02:06;;;;;;;3.13;2.03;;;;;;;;;;10442349;28;20482;-79
2023/09/02 07:07:10;;;;;;;3.63;1.95;;;;;;;;;;10450251;28;20143;-82
2023/09/02 07:12:12;;;;;;;3.17;1.80;;;;;;;;;;10451194;28;20086;-79
2023/09/02 07:17:15;;;;;;;5.60;2.40;;;;;;;;;;10436218;28;20041;-80
2023/09/02 07:22:20;;;;;;;4.97;2.17;;;;;;;;;;10442022;28;20065;-79
2023/09/02 07:27:22;;;;;;;4.10;2.50;;;;;;;;;;10442372;28;20481;-81
2023/09/02 07:32:25;;;;;;;2.47;1.90;;;;;;;;;;10442831;28;20115;-81
2023/09/02 07:37:29;;;;;;;2.63;2.05;;;;;;;;;;10431639;28;20123;-81
2023/09/02 07:42:32;;;;;;;2.88;1.90;;;;;;;;;;10433216;28;20033;-81
2023/09/02 07:47:34;;;;;;;3.22;1.98;;;;;;;;;;10439534;28;20061;-80
2023/09/02 07:52:39;;;;;;;3.13;2.20;;;;;;;;;;10443873;28;20372;-80
2023/09/02 07:57:42;;;;;;;7.95;4.00;;;;;;;;;;10443977;28;20129;-81
2023/09/02 08:02:45;;;;;;;5.93;3.10;;;;;;;;;;10440497;28;20045;-81
2023/09/02 08:07:49;;;;;;;6.05;2.40;;;;;;;;;;10433550;28;20045;-81
2023/09/02 08:12:51;;;;;;;3.35;2.30;;;;;;;;;;10436226;28;20546;-81
2023/09/02 08:17:54;;;;;;;2.92;2.38;;;;;;;;;;10440889;28;20033;-82
2023/09/02 08:22:58;;;;;;;3.40;2.35;;;;;;;;;;10433432;28;20137;-81
2023/09/02 08:28:00;;;;;;;4.47;2.50;;;;;;;;;;10441966;28;20112;-81
2023/09/02 08:33:04;;;;;;;3.28;2.15;;;;;;;;;;10432921;28;20072;-82
2023/09/02 08:38:08;;;;;;;3.50;2.75;;;;;;;;;;10438958;28;20107;-82
2023/09/02 08:43:11;;;;;;;3.63;2.53;;;;;;;;;;10454241;28;20037;-82
2023/09/02 08:48:22;;;;;;;7.47;4.97;;;;;;;;;;10450941;28;20061;-80
2023/09/02 08:53:30;;;;;;;3.75;2.95;;;;;;;;;;10445134;28;20496;-80
2023/09/02 08:58:33;;;;;;;5.10;2.83;;;;;;;;;;10440266;28;20134;-80
2023/09/02 09:03:35;;;;;;;9.30;5.50;;;;;;;;;;10440145;28;20053;-80
2023/09/02 09:08:39;;;;;;;5.35;3.60;;;;;;;;;;10439258;28;20049;-80
2023/09/02 09:13:45;;;;;;;6.32;3.42;;;;;;;;;;10451028;28;20057;-79
2023/09/02 09:18:49;;;;;;;3.78;3.30;;;;;;;;;;10449249;28;20045;-80
2023/09/02 09:23:53;;;;;;;4.35;2.83;;;;;;;;;;10448402;28;20079;-80
2023/09/02 09:28:56;;;;;;;3.25;2.40;;;;;;;;;;10438580;28;20132;-80
2023/09/02 09:34:00;;;;;;;4.55;3.28;;;;;;;;;;10432535;28;20072;-80
2023/09/02 09:39:04;;;;;;;3.83;2.80;;;;;;;;;;10444159;28;20051;-79
2023/09/02 09:44:08;;;;;;;3.00;2.70;;;;;;;;;;10444912;28;20514;-80
2023/09/02 09:49:21;;;;;;;3.20;2.90;;;;;;;;;;10445307;28;20649;-81
2023/09/02 09:54:34;;;;;;;2.97;2.67;;;;;;;;;;10441630;28;20041;-81
2023/09/02 09:59:37;;;;;;;3.42;3.05;;;;;;;;;;10431768;28;20080;-81
2023/09/02 10:04:40;;;;;;;2.50;2.30;;;;;;;;;;10448409;28;20041;-81
2023/09/02 10:09:45;;;;;;;4.30;3.40;;;;;;;;;;10444893;28;20077;-81
2023/09/02 10:14:48;;;;;;;3.63;3.10;;;;;;;;;;10437134;28;20541;-81
2023/09/02 10:19:50;;;;;;;3.40;2.90;;;;;;;;;;10441304;28;20037;-81
2023/09/02 10:24:59;;;;;;;4.40;2.60;;;;;;;;;;10436566;28;20037;-81
2023/09/02 10:30:02;;;;;;;3.53;2.90;;;;;;;;;;10436928;28;20053;-81
2023/09/02 10:35:08;;;;;;;5.18;2.85;;;;;;;;;;10446602;28;20132;-82
2023/09/02 10:40:15;;;;;;;4.28;2.97;;;;;;;;;;10440768;28;20049;-81
2023/09/02 10:45:18;;;;;;;3.05;2.60;;;;;;;;;;10441697;28;20106;-81
2023/09/02 10:50:22;;;;;;;3.83;2.67;;;;;;;;;;10442590;28;20045;-80
2023/09/02 10:55:26;;;;;;;3.80;2.92;;;;;;;;;;10437435;28;20066;-81
2023/09/02 11:00:29;;;;;;;3.88;2.60;;;;;;;;;;10439347;28;20664;-82
2023/09/02 11:05:52;;;;;;;8.15;3.42;;;;;;;;;;10445114;28;20033;-81
2023/09/02 11:10:56;;;;;;;3.20;2.90;;;;;;;;;;10433481;28;20029;-82
2023/09/02 11:16:14;;;;;;;4.43;2.30;;;;;;;;;;10429124;28;20475;-81
2023/09/02 11:21:36;;;;;;;4.18;3.08;;;;;;;;;;10441128;28;20049;-81
2023/09/02 11:26:51;;;;;;;4.88;3.10;;;;;;;;;;10444002;28;20041;-81
2023/09/02 11:31:57;;;;;;;4.15;2.40;;;;;;;;;;10439992;28;20090;-82
2023/09/02 11:37:00;;;;;;;4.47;2.95;;;;;;;;;;10443814;28;20666;-82
2023/09/02 11:42:09;;;;;;;3.50;3.10;;;;;;;;;;10430994;28;20064;-81
2023/09/02 11:47:14;;;;;;;3.92;2.80;;;;;;;;;;10443384;28;20040;-81
2023/09/02 11:52:21;;;;;;;2.83;2.63;;;;;;;;;;10431924;28;20127;-81
2023/09/02 11:57:25;;;;;;;26.20;13.90;;;;;;;;;;10450274;28;20549;-81
2023/09/02 12:02:27;;;;;;;2.88;1.77;;;;;;;;;;10450206;28;20049;-81
2023/09/02 12:07:31;;;;;;;3.88;2.03;;;;;;;;;;10437797;28;20037;-81
2023/09/02 12:12:36;;;;;;;3.60;2.42;;;;;;;;;;10446885;28;20514;-81
2023/09/02 12:17:38;;;;;;;3.28;2.03;;;;;;;;;;10442428;28;20467;-80
2023/09/02 12:22:42;;;;;;;3.40;1.92;;;;;;;;;;10447005;28;20057;-80
2023/09/02 12:27:46;;;;;;;8.18;3.90;;;;;;;;;;10450103;28;20114;-80
2023/09/02 12:32:49;;;;;;;5.90;2.95;;;;;;;;;;10445538;28;20052;-80
2023/09/02 12:38:00;;;;;;;5.03;2.90;;;;;;;;;;10440906;28;20046;-81
2023/09/02 12:43:02;;;;;;;;;;;;;;;;;;10434701;28;20445;-80
2023/09/02 12:48:07;;;;;;;3.53;2.30;;;;;;;;;;10448123;28;20011;-80
2023/09/02 12:53:13;;;;;;;5.13;3.05;;;;;;;;;;10451984;28;20665;-81
2023/09/02 12:58:16;;;;;;;2.47;2.00;;;;;;;;;;10440103;28;20036;-80
2023/09/02 13:03:20;;;;;;;3.85;2.40;;;;;;;;;;10442235;28;20064;-80
2023/09/02 13:08:23;;;;;;;2.72;2.08;;;;;;;;;;10438780;28;20424;-80
2023/09/02 13:13:25;;;;;;;2.17;1.77;;;;;;;;;;10441474;28;20072;-80
2023/09/02 13:18:29;;;;;;;3.47;2.08;;;;;;;;;;10444450;28;20215;-80
2023/09/02 13:23:32;;;;;;;2.60;2.17;;;;;;;;;;10446240;28;20072;-81
2023/09/02 13:28:37;;;;;;;2.20;2.00;;;;;;;;;;10443987;28;20045;-80
2023/09/02 13:33:42;;;;;;;3.30;1.60;;;;;;;;;;10443909;28;20045;-80
2023/09/02 13:38:45;;;;;;;4.75;1.90;;;;;;;;;;10432245;28;20537;-80
2023/09/02 13:43:47;;;;;;;2.63;1.60;;;;;;;;;;10439904;28;20033;-80
2023/09/02 13:48:51;;;;;;;2.45;1.80;;;;;;;;;;10452592;28;20158;-80
2023/09/02 13:53:54;;;;;;;2.60;1.60;;;;;;;;;;10442399;28;20079;-80
2023/09/02 13:59:00;;;;;;;2.95;1.75;;;;;;;;;;10439759;28;20044;-80
2023/09/02 14:04:04;;;;;;;3.08;1.45;;;;;;;;;;10439017;28;20079;-79
2023/09/02 14:09:16;;;;;;;2.50;1.52;;;;;;;;;;10438368;28;20095;-80
2023/09/02 14:14:20;;;;;;;3.88;1.77;;;;;;;;;;10447811;28;20129;-81
2023/09/02 14:19:24;;;;;;;4.40;2.15;;;;;;;;;;10449204;28;20045;-81
2023/09/02 14:24:26;;;;;;;2.40;1.40;;;;;;;;;;10444893;28;20045;-81
2023/09/02 14:29:29;;;;;;;2.35;1.50;;;;;;;;;;10445397;28;20655;-81
2023/09/02 14:34:33;;;;;;;2.58;1.58;;;;;;;;;;10442635;28;20390;-81
2023/09/02 14:39:36;;;;;;;1.67;1.35;;;;;;;;;;10437070;28;20052;-80
2023/09/02 14:44:39;;;;;;;3.15;1.70;;;;;;;;;;10440426;28;20098;-81
2023/09/02 14:49:42;;;;;;;1.73;1.17;;;;;;;;;;10446148;28;20037;-80
2023/09/02 14:54:46;;;;;;;6.05;1.40;;;;;;;;;;10440722;28;20119;-81
2023/09/02 14:59:50;;;;;;;4.22;1.65;;;;;;;;;;10434545;28;20045;-81
2023/09/02 15:04:54;;;;;;;3.17;1.60;;;;;;;;;;10438257;28;20057;-80
2023/09/02 15:09:56;;;;;;;3.33;1.55;;;;;;;;;;10443363;28;20115;-80
2023/09/02 15:14:59;;;;;;;4.05;1.40;;;;;;;;;;10437034;28;20044;-80
2023/09/02 15:20:07;;;;;;;2.75;1.20;;;;;;;;;;10441316;28;20056;-80
2023/09/02 15:25:11;;;;;;;3.13;1.35;;;;;;;;;;10432441;28;20060;-81
2023/09/02 15:30:15;;;;;;;3.60;1.95;;;;;;;;;;10429907;28;20076;-80
2023/09/02 15:35:20;;;;;;;2.92;1.95;;;;;;;;;;10433700;28;20468;-80
2023/09/02 15:40:25;;;;;;;3.95;1.30;;;;;;;;;;10447918;28;20215;-80
2023/09/02 15:45:28;;;;;;;3.55;1.25;;;;;;;;;;10435029;28;20065;-80
2023/09/02 15:50:32;;;;;;;2.90;1.30;;;;;;;;;;10438659;28;20045;-80
2023/09/02 15:55:34;;;;;;;3.08;1.70;;;;;;;;;;10438219;28;20571;-80
2023/09/02 16:00:37;;;;;;;2.22;1.40;;;;;;;;;;10429008;28;20040;-80
2023/09/02 16:05:41;;;;;;;2.28;1.35;;;;;;;;;;10436025;28;20069;-80
2023/09/02 16:10:43;;;;;;;1.70;1.20;;;;;;;;;;10444371;28;20039;-80
2023/09/02 16:15:46;;;;;;;2.60;1.70;;;;;;;;;;10436487;28;20109;-80
2023/09/02 16:20:52;;;;;;;2.50;1.20;;;;;;;;;;10437210;28;20091;-81
2023/09/02 16:25:54;;;;;;;2.80;1.50;;;;;;;;;;10434740;28;20045;-80
2023/09/02 16:30:57;;;;;;;2.53;1.40;;;;;;;;;;10427517;28;20064;-81
2023/09/02 16:36:01;;;;;;;3.45;1.40;;;;;;;;;;10442490;28;20045;-80
2023/09/02 16:41:04;;;;;;;3.55;1.90;;;;;;;;;;10440063;28;20040;-80
2023/09/02 16:46:07;;;;;;;3.22;2.00;;;;;;;;;;10439414;28;20032;-81
2023/09/02 16:51:14;;;;;;;3.45;1.95;;;;;;;;;;10435693;28;20037;-80
2023/09/02 16:56:17;;;;;;;3.80;1.60;;;;;;;;;;10434783;28;20104;-80
2023/09/02 17:01:22;;;;;;;3.03;1.40;;;;;;;;;;10444289;28;20057;-80
2023/09/02 17:06:28;;;;;;;2.10;1.30;;;;;;;;;;10446935;28;20040;-81
2023/09/02 17:11:31;;;;;;;3.28;1.55;;;;;;;;;;10455077;28;20064;-80
2023/09/02 17:16:33;;;;;;;3.95;1.88;;;;;;;;;;10438921;28;20128;-80
2023/09/02 17:21:36;;;;;;;;;;;;;;;;;;10439036;28;20362;-80
2023/09/02 17:26:40;;;;;;;3.30;1.50;;;;;;;;;;10440693;28;19920;-79
2023/09/02 17:31:42;;;;;;;2.65;1.40;;;;;;;;;;10445736;28;20465;-80
2023/09/02 17:36:45;;;;;;;6.95;1.40;;;;;;;;;;10447069;28;20044;-80
2023/09/02 17:41:49;;;;;;;2.65;1.40;;;;;;;;;;10444986;28;20029;-80
2023/09/02 17:46:51;;;;;;;6.57;1.30;;;;;;;;;;10444351;28;20039;-80
2023/09/02 17:51:54;;;;;;;2.22;1.55;;;;;;;;;;10434445;28;20124;-80
2023/09/02 17:56:58;;;;;;;4.82;1.98;;;;;;;;;;10446171;28;20061;-79
2023/09/02 18:02:03;;;;;;;2.25;1.45;;;;;;;;;;10440675;28;20194;-79
2023/09/02 18:07:07;;;;;;;5.15;1.90;;;;;;;;;;10441462;28;20149;-80
2023/09/02 18:12:11;;;;;;;2.63;1.55;;;;;;;;;;10445000;28;20062;-79
2023/09/02 18:17:14;;;;;;;4.15;1.77;;;;;;;;;;10432473;28;20047;-80
2023/09/02 18:22:16;;;;;;;3.53;1.90;;;;;;;;;;10441473;28;20050;-80
2023/09/02 18:27:20;;;;;;;2.90;2.00;;;;;;;;;;10446112;28;20060;-81
2023/09/02 18:32:23;;;;;;;3.67;1.90;;;;;;;;;;10444404;28;20073;-80
2023/09/02 18:37:25;;;;;;;5.03;2.25;;;;;;;;;;10441885;28;20121;-79
2023/09/02 18:42:29;;;;;;;7.40;2.30;;;;;;;;;;10433912;28;20044;-79
2023/09/02 18:47:32;;;;;;;4.45;2.63;;;;;;;;;;10440784;28;20087;-80
2023/09/02 18:52:35;;;;;;;5.80;2.92;;;;;;;;;;10442394;28;20057;-80
2023/09/02 18:57:38;;;;;;;5.55;2.95;;;;;;;;;;10441418;28;20041;-79
2023/09/02 19:02:41;;;;;;;6.43;2.92;;;;;;;;;;10440105;28;20041;-80
2023/09/02 19:07:44;;;;;;;4.57;2.53;;;;;;;;;;10439527;28;20052;-79
2023/09/02 19:12:48;;;;;;;8.27;2.78;;;;;;;;;;10436847;28;20495;-81
2023/09/02 19:17:50;;;;;;;7.85;3.13;;;;;;;;;;10436120;28;20045;-79
2023/09/02 19:22:53;;;;;;;5.97;3.08;;;;;;;;;;10440079;28;20043;-80
2023/09/02 19:27:57;;;;;;;6.20;3.47;;;;;;;;;;10445181;28;20471;-81
2023/09/02 19:32:59;;;;;;;8.75;3.38;;;;;;;;;;10439788;28;20040;-81
2023/09/02 19:38:02;;;;;;;9.10;3.70;;;;;;;;;;10435768;28;20033;-80
2023/09/02 19:43:06;;;;;;;9.65;4.28;;;;;;;;;;10435135;28;20381;-80
2023/09/02 19:48:08;;;;;;;9.60;4.53;;;;;;;;;;10440937;28;20067;-80
2023/09/02 19:53:11;;;;;;;13.03;5.63;;;;;;;;;;10438657;28;20053;-80
2023/09/02 19:58:15;;;;;;;15.70;5.18;;;;;;;;;;10436818;28;20049;-81
2023/09/02 20:03:18;;;;;;;9.10;4.65;;;;;;;;;;10435223;28;20080;-80
2023/09/02 20:08:21;;;;;;;7.45;3.97;;;;;;;;;;10433428;28;20640;-81
2023/09/02 20:13:26;;;;;;;10.82;4.03;;;;;;;;;;10429400;28;20054;-79
2023/09/02 20:18:29;;;;;;;10.90;4.60;;;;;;;;;;10437035;28;20185;-80
2023/09/02 20:23:32;;;;;;;11.02;4.22;;;;;;;;;;10441644;28;20083;-80
2023/09/02 20:28:35;;;;;;;7.90;4.07;;;;;;;;;;10434844;28;20040;-80
2023/09/02 20:33:38;;;;;;;11.00;5.32;;;;;;;;;;10445234;28;20471;-81
2023/09/02 20:38:42;;;;;;;9.57;4.67;;;;;;;;;;10446822;28;20077;-79
2023/09/02 20:43:47;;;;;;;11.23;5.03;;;;;;;;;;10446606;28;20037;-80
2023/09/02 20:48:49;;;;;;;10.63;5.07;;;;;;;;;;10451708;28;20096;-80
2023/09/02 20:53:53;;;;;;;6.93;3.93;;;;;;;;;;10446123;28;20072;-80
2023/09/02 20:58:57;;;;;;;10.18;4.95;;;;;;;;;;10446887;28;20037;-80
2023/09/02 21:03:59;;;;;;;11.85;4.90;;;;;;;;;;10441001;28;20447;-81
2023/09/02 21:09:02;;;;;;;9.93;5.03;;;;;;;;;;10434146;28;20042;-80
2023/09/02 21:14:06;;;;;;;8.07;4.30;;;;;;;;;;10440871;28;20075;-81
2023/09/02 21:19:08;;;;;;;12.70;6.90;;;;;;;;;;10446449;28;20067;-80
2023/09/02 21:24:11;;;;;;;10.87;5.43;;;;;;;;;;10441295;28;20049;-81
2023/09/02 21:29:14;;;;;;;;;;;;;;;;;;10436786;28;20096;-80
2023/09/02 21:34:18;;;;;;;10.63;4.97;;;;;;;;;;10437481;28;20405;-80
2023/09/02 21:39:20;;;;;;;14.90;5.45;;;;;;;;;;10443436;28;20132;-81
2023/09/02 21:44:23;;;;;;;10.77;4.80;;;;;;;;;;10447925;28;20078;-80
2023/09/02 21:49:27;;;;;;;11.03;5.30;;;;;;;;;;10458655;28;20193;-80
2023/09/02 21:54:30;;;;;;;18.20;7.32;;;;;;;;;;10439560;28;20449;-80
2023/09/02 21:59:32;;;;;;;10.43;5.93;;;;;;;;;;10442339;28;20216;-80
2023/09/02 22:04:36;;;;;;;14.43;5.28;;;;;;;;;;10441148;28;20595;-80
2023/09/02 22:09:39;;;;;;;14.10;4.68;;;;;;;;;;10443635;28;20124;-79
2023/09/02 22:14:41;;;;;;;11.57;4.85;;;;;;;;;;10449853;28;20045;-80
2023/09/02 22:19:45;;;;;;;13.82;4.72;;;;;;;;;;10448022;28;20136;-79
2023/09/02 22:24:48;;;;;;;10.32;4.97;;;;;;;;;;10437654;28;20458;-79
2023/09/02 22:29:51;;;;;;;;;;;;;;;;;;10437078;28;20037;-80
2023/09/02 22:34:55;;;;;;;9.70;4.78;;;;;;;;;;10438234;28;19944;-79
2023/09/02 22:39:57;;;;;;;11.60;5.53;;;;;;;;;;10461476;28;20140;-80
2023/09/02 22:45:00;;;;;;;12.27;5.07;;;;;;;;;;10439746;28;20473;-79
2023/09/02 22:50:04;;;;;;;12.03;4.70;;;;;;;;;;10439477;28;20052;-80
2023/09/02 22:55:07;;;;;;;10.85;5.18;;;;;;;;;;10439304;28;20045;-79
2023/09/02 23:00:10;;;;;;;13.02;5.32;;;;;;;;;;10438441;28;20649;-80
2023/09/02 23:05:14;;;;;;;14.70;5.78;;;;;;;;;;10438681;28;20060;-80
2023/09/02 23:10:18;;;;;;;12.10;4.82;;;;;;;;;;10442041;28;20045;-80
2023/09/02 23:15:21;;;;;;;10.18;5.10;;;;;;;;;;10439980;28;20045;-80
2023/09/02 23:20:29;;;;;;;11.73;5.10;;;;;;;;;;10437514;28;20073;-80
2023/09/02 23:25:31;;;;;;;11.40;5.22;;;;;;;;;;10435168;28;20714;-80
2023/09/02 23:30:34;;;;;;;12.43;5.63;;;;;;;;;;10433728;28;20209;-80
2023/09/02 23:35:38;;;;;;;11.85;5.10;;;;;;;;;;10443724;28;20044;-80
2023/09/02 23:40:40;;;;;;;10.13;5.22;;;;;;;;;;10438573;28;20122;-79
2023/09/02 23:45:43;;;;;;;11.57;5.07;;;;;;;;;;10439235;28;20051;-80
2023/09/02 23:50:48;;;;;;;15.25;5.40;;;;;;;;;;10436725;28;20068;-80
2023/09/02 23:55:50;;;;;;;12.63;5.20;;;;;;;;;;10429672;28;20049;-80
